sensor_id;sensor_type;location;lat;lon;timestamp;pressure;altitude;pressure_sealevel;temperature;humidity
10482;BME280;5288;42.334;23.876;2022-07-12T00:02:20;56150.22;;;-140.56;59.73
10482;BME280;5288;42.334;23.876;2022-07-12T00:04:47;56148.25;;;-140.56;62.14
10482;BME280;5288;42.334;23.876;2022-07-12T00:07:15;56126.50;;;-140.56;64.84
10482;BME280;5288;42.334;23.876;2022-07-12T00:09:42;56134.41;;;-140.56;63.77
10482;BME280;5288;42.334;23.876;2022-07-12T00:12:10;56124.53;;;-140.56;63.91
10482;BME280;5288;42.334;23.876;2022-07-12T00:14:37;56118.59;;;-140.56;62.70
10482;BME280;5288;42.334;23.876;2022-07-12T00:17:04;56120.59;;;-140.56;63.73
10482;BME280;5288;42.334;23.876;2022-07-12T00:19:31;56104.78;;;-140.56;64.99
10482;BME280;5288;42.334;23.876;2022-07-12T00:21:58;56096.88;;;-140.56;62.10
10482;BME280;5288;42.334;23.876;2022-07-12T00:24:26;56134.41;;;-140.56;60.94
10482;BME280;5288;42.334;23.876;2022-07-12T00:26:53;56152.22;;;-140.56;60.94
10482;BME280;5288;42.334;23.876;2022-07-12T00:29:20;56144.31;;;-140.56;61.04
10482;BME280;5288;42.334;23.876;2022-07-12T00:31:48;56158.13;;;-140.56;62.92
10482;BME280;5288;42.334;23.876;2022-07-12T00:34:15;56152.22;;;-140.56;64.14
10482;BME280;5288;42.334;23.876;2022-07-12T00:36:42;56148.25;;;-140.56;63.56
10482;BME280;5288;42.334;23.876;2022-07-12T00:39:09;56106.75;;;-140.56;64.44
10482;BME280;5288;42.334;23.876;2022-07-12T00:41:37;56108.72;;;-140.56;62.68
10482;BME280;5288;42.334;23.876;2022-07-12T00:44:04;56106.75;;;-140.56;61.71
10482;BME280;5288;42.334;23.876;2022-07-12T00:46:31;56164.06;;;-140.56;61.09
10482;BME280;5288;42.334;23.876;2022-07-12T00:48:59;56150.22;;;-140.56;62.53
10482;BME280;5288;42.334;23.876;2022-07-12T00:51:26;56120.59;;;-140.56;63.63
10482;BME280;5288;42.334;23.876;2022-07-12T00:53:56;56134.41;;;-140.56;65.22
10482;BME280;5288;42.334;23.876;2022-07-12T00:56:24;56152.22;;;-140.56;60.75
10482;BME280;5288;42.334;23.876;2022-07-12T00:58:53;56110.72;;;-140.56;62.64
10482;BME280;5288;42.334;23.876;2022-07-12T01:01:21;56128.50;;;-140.56;62.62
10482;BME280;5288;42.334;23.876;2022-07-12T01:03:49;56128.50;;;-140.56;63.25
10482;BME280;5288;42.334;23.876;2022-07-12T01:06:17;56146.28;;;-140.56;60.74
10482;BME280;5288;42.334;23.876;2022-07-12T01:08:44;56140.34;;;-140.56;62.25
10482;BME280;5288;42.334;23.876;2022-07-12T01:11:12;56195.69;;;-140.56;61.87
10482;BME280;5288;42.334;23.876;2022-07-12T01:13:39;56199.63;;;-140.56;61.80
10482;BME280;5288;42.334;23.876;2022-07-12T01:16:10;56183.81;;;-140.56;63.61
10482;BME280;5288;42.334;23.876;2022-07-12T01:18:39;56126.50;;;-140.56;63.73
10482;BME280;5288;42.334;23.876;2022-07-12T01:21:07;56130.47;;;-140.56;63.46
10482;BME280;5288;42.334;23.876;2022-07-12T01:23:37;56142.31;;;-140.56;63.14
10482;BME280;5288;42.334;23.876;2022-07-12T01:26:04;56183.81;;;-140.56;63.85
10482;BME280;5288;42.334;23.876;2022-07-12T01:28:31;56154.19;;;-140.56;63.76
10482;BME280;5288;42.334;23.876;2022-07-12T01:30:59;56171.97;;;-140.56;63.16
10482;BME280;5288;42.334;23.876;2022-07-12T01:33:26;56132.44;;;-140.56;62.42
10482;BME280;5288;42.334;23.876;2022-07-12T01:35:54;56140.34;;;-140.56;62.24
10482;BME280;5288;42.334;23.876;2022-07-12T01:38:21;56138.38;;;-140.56;62.85
10482;BME280;5288;42.334;23.876;2022-07-12T01:40:49;56162.09;;;-140.56;63.03
10482;BME280;5288;42.334;23.876;2022-07-12T01:43:16;56175.91;;;-140.56;63.80
10482;BME280;5288;42.334;23.876;2022-07-12T01:45:43;56148.25;;;-140.56;63.67
10482;BME280;5288;42.334;23.876;2022-07-12T01:48:10;56201.63;;;-140.56;63.48
10482;BME280;5288;42.334;23.876;2022-07-12T01:50:37;56162.09;;;-140.56;63.63
10482;BME280;5288;42.334;23.876;2022-07-12T01:53:05;56170.00;;;-140.56;63.42
10482;BME280;5288;42.334;23.876;2022-07-12T01:55:33;56164.06;;;-140.56;63.64
10482;BME280;5288;42.334;23.876;2022-07-12T01:58:02;56166.03;;;-140.56;63.12
10482;BME280;5288;42.334;23.876;2022-07-12T02:00:31;56152.22;;;-140.56;63.02
10482;BME280;5288;42.334;23.876;2022-07-12T02:02:58;56181.84;;;-140.56;63.83
10482;BME280;5288;42.334;23.876;2022-07-12T02:05:25;56128.50;;;-140.56;63.35
10482;BME280;5288;42.334;23.876;2022-07-12T02:07:53;56138.38;;;-140.56;62.17
10482;BME280;5288;42.334;23.876;2022-07-12T02:10:20;56154.19;;;-140.56;61.89
10482;BME280;5288;42.334;23.876;2022-07-12T02:12:47;56166.03;;;-140.56;62.38
10482;BME280;5288;42.334;23.876;2022-07-12T02:15:15;56158.13;;;-140.56;63.05
10482;BME280;5288;42.334;23.876;2022-07-12T02:17:42;56152.22;;;-140.56;63.89
10482;BME280;5288;42.334;23.876;2022-07-12T02:20:10;56171.97;;;-140.56;62.93
10482;BME280;5288;42.334;23.876;2022-07-12T02:22:38;56175.91;;;-140.56;62.63
10482;BME280;5288;42.334;23.876;2022-07-12T02:25:06;56171.97;;;-140.56;63.78
10482;BME280;5288;42.334;23.876;2022-07-12T02:27:33;56158.13;;;-140.56;62.02
10482;BME280;5288;42.334;23.876;2022-07-12T02:30:00;56166.03;;;-140.56;63.69
10482;BME280;5288;42.334;23.876;2022-07-12T02:32:29;56144.31;;;-140.56;62.56
10482;BME280;5288;42.334;23.876;2022-07-12T02:34:56;56166.03;;;-140.56;63.55
10482;BME280;5288;42.334;23.876;2022-07-12T02:37:23;56203.59;;;-140.56;64.26
10482;BME280;5288;42.334;23.876;2022-07-12T02:39:51;56144.31;;;-140.56;64.82
10482;BME280;5288;42.334;23.876;2022-07-12T02:42:38;56205.56;;;-140.56;64.42
10482;BME280;5288;42.334;23.876;2022-07-12T02:45:06;56201.63;;;-140.56;64.31
10482;BME280;5288;42.334;23.876;2022-07-12T02:47:37;56209.50;;;-140.56;63.52
10482;BME280;5288;42.334;23.876;2022-07-12T02:50:05;56177.91;;;-140.56;63.96
10482;BME280;5288;42.334;23.876;2022-07-12T02:52:33;56171.97;;;-140.56;64.45
10482;BME280;5288;42.334;23.876;2022-07-12T02:55:00;56203.59;;;-140.56;63.36
10482;BME280;5288;42.334;23.876;2022-07-12T02:57:27;56175.91;;;-140.56;63.28
10482;BME280;5288;42.334;23.876;2022-07-12T02:59:54;56211.50;;;-140.56;63.76
10482;BME280;5288;42.334;23.876;2022-07-12T03:02:21;56175.91;;;-140.56;63.70
10482;BME280;5288;42.334;23.876;2022-07-12T03:04:49;56164.06;;;-140.56;63.92
10482;BME280;5288;42.334;23.876;2022-07-12T03:07:16;56205.56;;;-140.56;64.43
10482;BME280;5288;42.334;23.876;2022-07-12T03:09:43;56193.72;;;-140.56;65.44
10482;BME280;5288;42.334;23.876;2022-07-12T03:12:10;56193.72;;;-140.56;66.24
10482;BME280;5288;42.334;23.876;2022-07-12T03:14:38;56171.97;;;-140.56;66.55
10482;BME280;5288;42.334;23.876;2022-07-12T03:17:05;56183.81;;;-140.56;67.00
10482;BME280;5288;42.334;23.876;2022-07-12T03:19:32;56152.22;;;-140.56;64.95
10482;BME280;5288;42.334;23.876;2022-07-12T03:22:00;56175.91;;;-140.56;64.33
10482;BME280;5288;42.334;23.876;2022-07-12T03:24:27;56158.13;;;-140.56;64.98
10482;BME280;5288;42.334;23.876;2022-07-12T03:26:54;56185.81;;;-140.56;66.61
10482;BME280;5288;42.334;23.876;2022-07-12T03:29:21;56130.47;;;-140.56;66.58
10482;BME280;5288;42.334;23.876;2022-07-12T03:31:48;56134.41;;;-140.56;62.48
10482;BME280;5288;42.334;23.876;2022-07-12T03:34:15;56162.09;;;-140.56;62.00
10482;BME280;5288;42.334;23.876;2022-07-12T03:36:42;56162.09;;;-140.56;63.12
10482;BME280;5288;42.334;23.876;2022-07-12T03:39:11;56179.88;;;-140.56;64.65
10482;BME280;5288;42.334;23.876;2022-07-12T03:41:38;56132.44;;;-140.56;63.59
10482;BME280;5288;42.334;23.876;2022-07-12T03:44:05;56156.16;;;-140.56;63.83
10482;BME280;5288;42.334;23.876;2022-07-12T03:46:32;56191.72;;;-140.56;64.15
10482;BME280;5288;42.334;23.876;2022-07-12T03:48:59;56152.22;;;-140.56;64.68
10482;BME280;5288;42.334;23.876;2022-07-12T03:51:26;56158.13;;;-140.56;65.10
10482;BME280;5288;42.334;23.876;2022-07-12T03:53:54;56148.25;;;-140.56;64.26
10482;BME280;5288;42.334;23.876;2022-07-12T03:56:22;56225.31;;;-140.56;65.11
10482;BME280;5288;42.334;23.876;2022-07-12T03:59:06;56181.84;;;-140.56;65.84
10482;BME280;5288;42.334;23.876;2022-07-12T04:01:33;56187.78;;;-140.56;66.27
10482;BME280;5288;42.334;23.876;2022-07-12T04:04:00;56191.72;;;-140.56;66.49
10482;BME280;5288;42.334;23.876;2022-07-12T04:06:28;56191.72;;;-140.56;67.03
10482;BME280;5288;42.334;23.876;2022-07-12T04:08:56;56185.81;;;-140.56;66.61
10482;BME280;5288;42.334;23.876;2022-07-12T04:11:24;56207.53;;;-140.56;66.48
10482;BME280;5288;42.334;23.876;2022-07-12T04:13:51;56166.03;;;-140.56;66.57
10482;BME280;5288;42.334;23.876;2022-07-12T04:16:18;56168.00;;;-140.56;66.65
10482;BME280;5288;42.334;23.876;2022-07-12T04:18:45;56156.16;;;-140.56;66.56
10482;BME280;5288;42.334;23.876;2022-07-12T04:21:12;56164.06;;;-140.56;65.93
10482;BME280;5288;42.334;23.876;2022-07-12T04:23:39;56162.09;;;-140.56;65.44
10482;BME280;5288;42.334;23.876;2022-07-12T04:26:06;56166.03;;;-140.56;65.95
10482;BME280;5288;42.334;23.876;2022-07-12T04:28:36;56152.22;;;-140.56;64.46
10482;BME280;5288;42.334;23.876;2022-07-12T04:31:03;56158.13;;;-140.56;65.41
10482;BME280;5288;42.334;23.876;2022-07-12T04:33:30;56152.22;;;-140.56;64.38
10482;BME280;5288;42.334;23.876;2022-07-12T04:35:57;56134.41;;;-140.56;64.74
10482;BME280;5288;42.334;23.876;2022-07-12T04:38:24;56142.31;;;-140.56;63.63
10482;BME280;5288;42.334;23.876;2022-07-12T04:40:51;56140.34;;;-140.56;62.83
10482;BME280;5288;42.334;23.876;2022-07-12T04:43:18;56132.44;;;-140.56;62.37
10482;BME280;5288;42.334;23.876;2022-07-12T04:45:46;56132.44;;;-140.56;62.45
10482;BME280;5288;42.334;23.876;2022-07-12T04:48:13;56120.59;;;-140.56;61.97
10482;BME280;5288;42.334;23.876;2022-07-12T04:50:42;56140.34;;;-140.56;61.84
10482;BME280;5288;42.334;23.876;2022-07-12T04:53:09;56100.81;;;-140.56;61.83
10482;BME280;5288;42.334;23.876;2022-07-12T04:55:36;56108.72;;;-140.56;60.46
10482;BME280;5288;42.334;23.876;2022-07-12T04:58:03;56122.56;;;-140.56;60.90
10482;BME280;5288;42.334;23.876;2022-07-12T05:00:30;56096.88;;;-140.56;60.30
10482;BME280;5288;42.334;23.876;2022-07-12T05:02:59;56081.06;;;-140.56;60.49
10482;BME280;5288;42.334;23.876;2022-07-12T05:05:26;56106.75;;;-140.56;59.71
10482;BME280;5288;42.334;23.876;2022-07-12T05:07:53;56092.91;;;-140.56;55.36
10482;BME280;5288;42.334;23.876;2022-07-12T05:10:20;56071.19;;;-140.56;53.51
10482;BME280;5288;42.334;23.876;2022-07-12T05:12:47;56081.06;;;-140.56;51.68
10482;BME280;5288;42.334;23.876;2022-07-12T05:15:14;56037.59;;;-140.56;54.81
10482;BME280;5288;42.334;23.876;2022-07-12T05:17:41;56073.16;;;-140.56;51.50
10482;BME280;5288;42.334;23.876;2022-07-12T05:20:10;56035.63;;;-140.56;51.86
10482;BME280;5288;42.334;23.876;2022-07-12T05:22:37;56037.59;;;-140.56;51.58
10482;BME280;5288;42.334;23.876;2022-07-12T05:25:04;56049.44;;;-140.56;49.87
10482;BME280;5288;42.334;23.876;2022-07-12T05:27:31;56039.56;;;-140.56;48.50
10482;BME280;5288;42.334;23.876;2022-07-12T05:29:58;56067.22;;;-140.56;48.36
10482;BME280;5288;42.334;23.876;2022-07-12T05:32:25;56029.69;;;-140.56;48.63
10482;BME280;5288;42.334;23.876;2022-07-12T05:34:52;56055.38;;;-140.56;47.97
10482;BME280;5288;42.334;23.876;2022-07-12T05:37:21;56043.50;;;-140.56;48.40
10482;BME280;5288;42.334;23.876;2022-07-12T05:39:50;56011.91;;;-140.56;47.38
10482;BME280;5288;42.334;23.876;2022-07-12T05:42:17;56049.44;;;-140.56;47.04
10482;BME280;5288;42.334;23.876;2022-07-12T05:44:44;55992.13;;;-140.56;48.61
10482;BME280;5288;42.334;23.876;2022-07-12T05:47:11;56004.00;;;-140.56;48.46
10482;BME280;5288;42.334;23.876;2022-07-12T05:49:39;55998.06;;;-140.56;45.80
10482;BME280;5288;42.334;23.876;2022-07-12T05:52:06;56009.91;;;-140.56;47.47
10482;BME280;5288;42.334;23.876;2022-07-12T05:54:52;56033.63;;;-140.56;46.66
10482;BME280;5288;42.334;23.876;2022-07-12T05:57:19;56021.78;;;-140.56;46.73
10482;BME280;5288;42.334;23.876;2022-07-12T05:59:46;56004.00;;;-140.56;46.21
10482;BME280;5288;42.334;23.876;2022-07-12T06:02:13;55998.06;;;-140.56;46.13
10482;BME280;5288;42.334;23.876;2022-07-12T06:04:40;56002.00;;;-140.56;45.64
10482;BME280;5288;42.334;23.876;2022-07-12T06:07:07;56033.63;;;-140.56;46.50
10482;BME280;5288;42.334;23.876;2022-07-12T06:09:35;55988.19;;;-140.56;46.08
10482;BME280;5288;42.334;23.876;2022-07-12T06:12:04;56029.69;;;-140.56;47.34
10482;BME280;5288;42.334;23.876;2022-07-12T06:14:32;56009.91;;;-140.56;45.03
10482;BME280;5288;42.334;23.876;2022-07-12T06:16:59;56000.03;;;-140.56;45.05
10482;BME280;5288;42.334;23.876;2022-07-12T06:19:26;55970.41;;;-140.56;45.92
10482;BME280;5288;42.334;23.876;2022-07-12T06:21:53;55986.22;;;-140.56;43.51
10482;BME280;5288;42.334;23.876;2022-07-12T06:24:20;55976.31;;;-140.56;44.45
10482;BME280;5288;42.334;23.876;2022-07-12T06:26:47;55994.13;;;-140.56;45.04
10482;BME280;5288;42.334;23.876;2022-07-12T06:29:15;55946.69;;;-140.56;43.05
10482;BME280;5288;42.334;23.876;2022-07-12T06:31:42;55950.63;;;-140.56;43.39
10482;BME280;5288;42.334;23.876;2022-07-12T06:34:09;55984.22;;;-140.56;43.15
10482;BME280;5288;42.334;23.876;2022-07-12T06:36:36;55990.16;;;-140.56;43.76
10482;BME280;5288;42.334;23.876;2022-07-12T06:39:03;55960.53;;;-140.56;44.26
10482;BME280;5288;42.334;23.876;2022-07-12T06:41:30;55980.28;;;-140.56;42.86
10482;BME280;5288;42.334;23.876;2022-07-12T06:43:57;55986.22;;;-140.56;42.41
10482;BME280;5288;42.334;23.876;2022-07-12T06:46:25;55966.44;;;-140.56;41.74
10482;BME280;5288;42.334;23.876;2022-07-12T06:48:52;55972.38;;;-140.56;41.48
10482;BME280;5288;42.334;23.876;2022-07-12T06:51:19;55942.72;;;-140.56;41.82
10482;BME280;5288;42.334;23.876;2022-07-12T06:53:46;55984.22;;;-140.56;41.01
10482;BME280;5288;42.334;23.876;2022-07-12T06:56:13;55970.41;;;-140.56;41.68
10482;BME280;5288;42.334;23.876;2022-07-12T06:58:40;55962.50;;;-140.56;42.27
10482;BME280;5288;42.334;23.876;2022-07-12T07:01:07;55972.38;;;-140.56;41.82
10482;BME280;5288;42.334;23.876;2022-07-12T07:03:36;55964.47;;;-140.56;40.16
10482;BME280;5288;42.334;23.876;2022-07-12T07:06:03;55952.63;;;-140.56;41.50
10482;BME280;5288;42.334;23.876;2022-07-12T07:08:30;55922.97;;;-140.56;39.67
10482;BME280;5288;42.334;23.876;2022-07-12T07:10:57;55948.66;;;-140.56;40.21
10482;BME280;5288;42.334;23.876;2022-07-12T07:13:24;55926.94;;;-140.56;39.24
10482;BME280;5288;42.334;23.876;2022-07-12T07:15:51;55942.72;;;-140.56;40.42
10482;BME280;5288;42.334;23.876;2022-07-12T07:18:18;55968.41;;;-140.56;38.43
10482;BME280;5288;42.334;23.876;2022-07-12T07:20:46;55928.91;;;-140.56;38.96
10482;BME280;5288;42.334;23.876;2022-07-12T07:23:13;55956.56;;;-140.56;40.42
10482;BME280;5288;42.334;23.876;2022-07-12T07:25:42;55921.00;;;-140.56;38.14
10482;BME280;5288;42.334;23.876;2022-07-12T07:28:09;55942.72;;;-140.56;39.02
10482;BME280;5288;42.334;23.876;2022-07-12T07:30:36;55966.44;;;-140.56;39.08
10482;BME280;5288;42.334;23.876;2022-07-12T07:33:26;55897.28;;;-140.56;38.07
10482;BME280;5288;42.334;23.876;2022-07-12T07:35:55;55919.03;;;-140.56;38.52
10482;BME280;5288;42.334;23.876;2022-07-12T07:38:22;55915.06;;;-140.56;38.72
10482;BME280;5288;42.334;23.876;2022-07-12T07:40:49;55921.00;;;-140.56;38.96
10482;BME280;5288;42.334;23.876;2022-07-12T07:43:16;55930.88;;;-140.56;39.47
10482;BME280;5288;42.334;23.876;2022-07-12T07:45:43;55938.78;;;-140.56;36.93
10482;BME280;5288;42.334;23.876;2022-07-12T07:48:10;55909.13;;;-140.56;37.47
10482;BME280;5288;42.334;23.876;2022-07-12T07:50:37;55936.81;;;-140.56;37.00
10482;BME280;5288;42.334;23.876;2022-07-12T07:53:06;55926.94;;;-140.56;38.38
10482;BME280;5288;42.334;23.876;2022-07-12T07:55:33;55891.34;;;-140.56;38.35
10482;BME280;5288;42.334;23.876;2022-07-12T07:58:00;55905.19;;;-140.56;37.40
10482;BME280;5288;42.334;23.876;2022-07-12T08:00:27;55905.19;;;-140.56;36.77
10482;BME280;5288;42.334;23.876;2022-07-12T08:02:55;55946.69;;;-140.56;36.58
10482;BME280;5288;42.334;23.876;2022-07-12T08:05:22;55909.13;;;-140.56;36.75
10482;BME280;5288;42.334;23.876;2022-07-12T08:07:49;55909.13;;;-140.56;38.82
10482;BME280;5288;42.334;23.876;2022-07-12T08:10:18;55934.81;;;-140.56;38.00
10482;BME280;5288;42.334;23.876;2022-07-12T08:12:45;55938.78;;;-140.56;37.98
10482;BME280;5288;42.334;23.876;2022-07-12T08:15:12;55915.06;;;-140.56;37.02
10482;BME280;5288;42.334;23.876;2022-07-12T08:17:39;55924.94;;;-140.56;37.04
10482;BME280;5288;42.334;23.876;2022-07-12T08:20:07;55901.22;;;-140.56;38.33
10482;BME280;5288;42.334;23.876;2022-07-12T08:22:34;55899.25;;;-140.56;38.10
10482;BME280;5288;42.334;23.876;2022-07-12T08:25:01;55922.97;;;-140.56;37.27
10482;BME280;5288;42.334;23.876;2022-07-12T08:27:29;55924.94;;;-140.56;37.26
10482;BME280;5288;42.334;23.876;2022-07-12T08:29:56;55907.16;;;-140.56;37.45
10482;BME280;5288;42.334;23.876;2022-07-12T08:32:23;55956.56;;;-140.56;37.25
10482;BME280;5288;42.334;23.876;2022-07-12T08:34:50;55922.97;;;-140.56;36.65
10482;BME280;5288;42.334;23.876;2022-07-12T08:37:17;55907.16;;;-140.56;37.45
10482;BME280;5288;42.334;23.876;2022-07-12T08:39:44;55936.81;;;-140.56;38.44
10482;BME280;5288;42.334;23.876;2022-07-12T08:42:14;55913.09;;;-140.56;38.39
10482;BME280;5288;42.334;23.876;2022-07-12T08:44:43;55954.59;;;-140.56;37.02
10482;BME280;5288;42.334;23.876;2022-07-12T08:47:10;55922.97;;;-140.56;38.69
10482;BME280;5288;42.334;23.876;2022-07-12T08:49:37;55907.16;;;-140.56;36.18
10482;BME280;5288;42.334;23.876;2022-07-12T08:52:24;55909.13;;;-140.56;35.40
10482;BME280;5288;42.334;23.876;2022-07-12T08:54:52;55944.72;;;-140.56;35.94
10482;BME280;5288;42.334;23.876;2022-07-12T08:57:28;55905.19;;;-140.56;36.65
10482;BME280;5288;42.334;23.876;2022-07-12T09:00:00;55895.31;;;-140.56;36.40
10482;BME280;5288;42.334;23.876;2022-07-12T09:02:27;55903.22;;;-140.56;36.42
10482;BME280;5288;42.334;23.876;2022-07-12T09:05:06;55879.50;;;-140.56;35.21
10482;BME280;5288;42.334;23.876;2022-07-12T09:07:34;55869.63;;;-140.56;34.12
10482;BME280;5288;42.334;23.876;2022-07-12T09:10:03;55899.25;;;-140.56;36.34
10482;BME280;5288;42.334;23.876;2022-07-12T09:12:32;55871.59;;;-140.56;34.06
10482;BME280;5288;42.334;23.876;2022-07-12T09:15:12;55881.47;;;-140.56;34.40
10482;BME280;5288;42.334;23.876;2022-07-12T09:17:39;55867.63;;;-140.56;33.98
10482;BME280;5288;42.334;23.876;2022-07-12T09:20:09;55855.78;;;-140.56;33.22
10482;BME280;5288;42.334;23.876;2022-07-12T09:22:37;55891.34;;;-140.56;32.38
10482;BME280;5288;42.334;23.876;2022-07-12T09:25:15;55915.06;;;-140.56;33.51
10482;BME280;5288;42.334;23.876;2022-07-12T09:27:50;55861.72;;;-140.56;33.20
10482;BME280;5288;42.334;23.876;2022-07-12T09:30:20;55881.47;;;-140.56;32.39
10482;BME280;5288;42.334;23.876;2022-07-12T09:32:58;55877.53;;;-140.56;33.41
10482;BME280;5288;42.334;23.876;2022-07-12T09:35:42;55895.31;;;-140.56;32.03
10482;BME280;5288;42.334;23.876;2022-07-12T09:38:27;55834.06;;;-140.56;32.66
10482;BME280;5288;42.334;23.876;2022-07-12T09:40:55;55828.13;;;-140.56;34.03
10482;BME280;5288;42.334;23.876;2022-07-12T09:43:23;55836.03;;;-140.56;31.54
10482;BME280;5288;42.334;23.876;2022-07-12T09:45:51;55820.22;;;-140.56;31.97
10482;BME280;5288;42.334;23.876;2022-07-12T09:48:19;55800.47;;;-140.56;31.13
10482;BME280;5288;42.334;23.876;2022-07-12T09:50:49;55816.25;;;-140.56;32.37
10482;BME280;5288;42.334;23.876;2022-07-12T09:53:20;55808.34;;;-140.56;31.37
10482;BME280;5288;42.334;23.876;2022-07-12T09:55:51;55836.03;;;-140.56;30.99
10482;BME280;5288;42.334;23.876;2022-07-12T09:58:26;55861.72;;;-140.56;32.44
10482;BME280;5288;42.334;23.876;2022-07-12T10:00:55;55877.53;;;-140.56;32.29
10482;BME280;5288;42.334;23.876;2022-07-12T10:03:28;55855.78;;;-140.56;31.27
10482;BME280;5288;42.334;23.876;2022-07-12T10:05:59;55816.25;;;-140.56;30.83
10482;BME280;5288;42.334;23.876;2022-07-12T10:08:27;55861.72;;;-140.56;32.42
10482;BME280;5288;42.334;23.876;2022-07-12T10:10:56;55812.31;;;-140.56;32.42
10482;BME280;5288;42.334;23.876;2022-07-12T10:13:25;55845.91;;;-140.56;32.76
10482;BME280;5288;42.334;23.876;2022-07-12T10:15:59;55822.19;;;-140.56;32.37
10482;BME280;5288;42.334;23.876;2022-07-12T10:18:27;55836.03;;;-140.56;31.22
10482;BME280;5288;42.334;23.876;2022-07-12T10:20:55;55834.06;;;-140.56;32.37
10482;BME280;5288;42.334;23.876;2022-07-12T10:23:33;55822.19;;;-140.56;32.31
10482;BME280;5288;42.334;23.876;2022-07-12T10:26:25;55820.22;;;-140.56;32.08
10482;BME280;5288;42.334;23.876;2022-07-12T10:28:59;55816.25;;;-140.56;31.24
10482;BME280;5288;42.334;23.876;2022-07-12T10:31:32;55792.56;;;-140.56;32.60
10482;BME280;5288;42.334;23.876;2022-07-12T10:34:13;55804.41;;;-140.56;30.57
10482;BME280;5288;42.334;23.876;2022-07-12T10:40:11;55788.59;;;-140.56;31.67
10482;BME280;5288;42.334;23.876;2022-07-12T10:42:39;55806.38;;;-140.56;31.25
10482;BME280;5288;42.334;23.876;2022-07-12T10:45:12;55788.59;;;-140.56;30.51
10482;BME280;5288;42.334;23.876;2022-07-12T10:47:56;55792.56;;;-140.56;30.02
10482;BME280;5288;42.334;23.876;2022-07-12T10:50:49;55774.75;;;-140.56;31.21
10482;BME280;5288;42.334;23.876;2022-07-12T10:53:22;55830.09;;;-140.56;30.15
10482;BME280;5288;42.334;23.876;2022-07-12T10:56:10;55802.44;;;-140.56;30.31
10482;BME280;5288;42.334;23.876;2022-07-12T10:58:38;55804.41;;;-140.56;31.05
10482;BME280;5288;42.334;23.876;2022-07-12T11:01:07;55824.16;;;-140.56;31.25
10482;BME280;5288;42.334;23.876;2022-07-12T11:03:39;55796.50;;;-140.56;31.17
10482;BME280;5288;42.334;23.876;2022-07-12T11:06:08;55780.69;;;-140.56;32.02
10482;BME280;5288;42.334;23.876;2022-07-12T11:08:49;55796.50;;;-140.56;31.21
10482;BME280;5288;42.334;23.876;2022-07-12T11:11:17;55812.31;;;-140.56;30.13
10482;BME280;5288;42.334;23.876;2022-07-12T11:13:44;55798.47;;;-140.56;31.99
10482;BME280;5288;42.334;23.876;2022-07-12T11:16:11;55836.03;;;-140.56;33.43
10482;BME280;5288;42.334;23.876;2022-07-12T11:18:39;55814.28;;;-140.56;33.04
10482;BME280;5288;42.334;23.876;2022-07-12T11:21:06;55832.06;;;-140.56;32.20
10482;BME280;5288;42.334;23.876;2022-07-12T11:23:34;55802.44;;;-140.56;31.85
10482;BME280;5288;42.334;23.876;2022-07-12T11:26:03;55857.75;;;-140.56;31.12
10482;BME280;5288;42.334;23.876;2022-07-12T11:28:31;55798.47;;;-140.56;32.26
10482;BME280;5288;42.334;23.876;2022-07-12T11:31:03;55836.03;;;-140.56;31.89
10482;BME280;5288;42.334;23.876;2022-07-12T11:33:31;55843.94;;;-140.56;32.11
10482;BME280;5288;42.334;23.876;2022-07-12T11:36:03;55786.63;;;-140.56;33.38
10482;BME280;5288;42.334;23.876;2022-07-12T11:38:30;55814.28;;;-140.56;31.46
10482;BME280;5288;42.334;23.876;2022-07-12T11:40:58;55778.72;;;-140.56;31.74
10482;BME280;5288;42.334;23.876;2022-07-12T11:43:25;55784.66;;;-140.56;32.22
10482;BME280;5288;42.334;23.876;2022-07-12T11:45:54;55800.47;;;-140.56;31.63
10482;BME280;5288;42.334;23.876;2022-07-12T11:48:22;55800.47;;;-140.56;32.16
10482;BME280;5288;42.334;23.876;2022-07-12T11:50:51;55780.69;;;-140.56;31.50
10482;BME280;5288;42.334;23.876;2022-07-12T11:53:21;55782.66;;;-140.56;32.99
10482;BME280;5288;42.334;23.876;2022-07-12T11:55:50;55780.69;;;-140.56;31.79
10482;BME280;5288;42.334;23.876;2022-07-12T11:58:19;55760.94;;;-140.56;31.53
10482;BME280;5288;42.334;23.876;2022-07-12T12:00:47;55800.47;;;-140.56;32.07
10482;BME280;5288;42.334;23.876;2022-07-12T12:03:16;55758.97;;;-140.56;30.60
10482;BME280;5288;42.334;23.876;2022-07-12T12:05:45;55753.03;;;-140.56;32.16
10482;BME280;5288;42.334;23.876;2022-07-12T12:08:13;55743.16;;;-140.56;31.32
10482;BME280;5288;42.334;23.876;2022-07-12T12:10:48;55751.06;;;-140.56;31.33
10482;BME280;5288;42.334;23.876;2022-07-12T12:13:19;55802.44;;;-140.56;31.60
10482;BME280;5288;42.334;23.876;2022-07-12T12:15:49;55788.59;;;-140.56;32.65
10482;BME280;5288;42.334;23.876;2022-07-12T12:18:27;55812.31;;;-140.56;32.85
10482;BME280;5288;42.334;23.876;2022-07-12T12:20:57;55816.25;;;-140.56;30.96
10482;BME280;5288;42.334;23.876;2022-07-12T12:23:25;55788.59;;;-140.56;31.77
10482;BME280;5288;42.334;23.876;2022-07-12T12:26:08;55810.34;;;-140.56;30.99
10482;BME280;5288;42.334;23.876;2022-07-12T12:28:43;55812.31;;;-140.56;31.48
10482;BME280;5288;42.334;23.876;2022-07-12T12:31:11;55755.00;;;-140.56;30.67
10482;BME280;5288;42.334;23.876;2022-07-12T12:33:41;55753.03;;;-140.56;30.31
10482;BME280;5288;42.334;23.876;2022-07-12T12:36:16;55749.06;;;-140.56;30.77
10482;BME280;5288;42.334;23.876;2022-07-12T12:38:43;55745.13;;;-140.56;30.08
10482;BME280;5288;42.334;23.876;2022-07-12T12:41:12;55751.06;;;-140.56;29.98
10482;BME280;5288;42.334;23.876;2022-07-12T12:43:40;55749.06;;;-140.56;29.74
10482;BME280;5288;42.334;23.876;2022-07-12T12:46:07;55760.94;;;-140.56;31.30
10482;BME280;5288;42.334;23.876;2022-07-12T12:48:35;55786.63;;;-140.56;30.19
10482;BME280;5288;42.334;23.876;2022-07-12T12:51:04;55774.75;;;-140.56;30.00
10482;BME280;5288;42.334;23.876;2022-07-12T12:53:32;55764.88;;;-140.56;30.80